createdAt,value
2022-12-09T00:03:16.070Z,6.93
2022-12-09T00:08:09.537Z,6.20
2022-12-09T00:13:01.520Z,6.33
2022-12-09T00:17:53.114Z,5.90
2022-12-09T00:22:44.658Z,6.20
2022-12-09T00:27:36.251Z,6.33
2022-12-09T00:32:27.815Z,6.17
2022-12-09T00:37:20.686Z,5.63
2022-12-09T00:42:12.414Z,5.83
2022-12-09T00:47:04.292Z,6.47
2022-12-09T00:51:56.125Z,6.10
2022-12-09T00:56:47.725Z,5.77
2022-12-09T01:01:39.377Z,5.60
2022-12-09T01:06:31.501Z,5.00
2022-12-09T01:11:26.709Z,5.60
2022-12-09T01:16:19.799Z,6.43
2022-12-09T01:21:13.421Z,6.30
2022-12-09T01:26:06.694Z,5.80
2022-12-09T01:31:05.871Z,6.10
2022-12-09T01:35:57.442Z,6.27
2022-12-09T01:40:49.405Z,6.47
2022-12-09T01:45:42.308Z,6.20
2022-12-09T01:50:36.721Z,6.13
2022-12-09T01:55:29.335Z,6.50
2022-12-09T02:00:21.064Z,6.00
2022-12-09T02:05:15.318Z,6.00
2022-12-09T02:10:16.810Z,6.20
2022-12-09T02:15:46.953Z,6.27
2022-12-09T02:20:44.345Z,6.47
2022-12-09T02:25:52.006Z,6.63
2022-12-09T02:30:55.086Z,6.37
2022-12-09T02:35:56.754Z,6.30
2022-12-09T02:40:56.362Z,6.50
2022-12-09T02:45:50.562Z,6.27
2022-12-09T02:50:45.192Z,6.30
2022-12-09T02:55:38.472Z,6.10
2022-12-09T03:00:30.664Z,6.50
2022-12-09T03:05:34.271Z,6.57
2022-12-09T03:10:31.669Z,5.83
2022-12-09T03:15:27.745Z,6.50
2022-12-09T03:20:29.787Z,6.40
2022-12-09T03:25:29.779Z,6.10
2022-12-09T03:30:22.988Z,6.03
2022-12-09T03:35:21.943Z,5.83
2022-12-09T03:40:17.970Z,6.30
2022-12-09T03:45:12.257Z,6.27
2022-12-09T03:50:06.776Z,5.90
2022-12-09T03:55:05.128Z,6.17
2022-12-09T04:00:00.780Z,6.00
2022-12-09T04:04:52.668Z,5.80
2022-12-09T04:09:44.935Z,5.93
2022-12-09T04:14:37.097Z,5.90
2022-12-09T04:19:29.014Z,5.53
2022-12-09T04:24:20.881Z,5.90
2022-12-09T04:29:13.249Z,5.73
2022-12-09T04:34:09.230Z,5.60
2022-12-09T04:39:01.793Z,6.00
2022-12-09T04:43:53.641Z,5.40
2022-12-09T04:48:45.261Z,6.07
2022-12-09T04:53:38.142Z,5.33
2022-12-09T04:58:29.942Z,6.37
2022-12-09T05:03:22.538Z,5.77
2022-12-09T05:08:14.952Z,6.30
2022-12-09T05:13:07.160Z,6.40
2022-12-09T05:17:59.630Z,6.10
2022-12-09T05:22:51.972Z,6.30
2022-12-09T05:27:43.947Z,5.87
2022-12-09T05:32:35.589Z,5.90
2022-12-09T05:37:27.432Z,6.93
2022-12-09T05:42:19.041Z,6.03
2022-12-09T05:47:10.711Z,6.47
2022-12-09T05:52:02.692Z,6.00
2022-12-09T05:56:54.730Z,6.07
2022-12-09T06:01:46.395Z,6.63
2022-12-09T06:06:38.223Z,6.50
2022-12-09T06:11:32.348Z,7.17
2022-12-09T06:16:24.604Z,6.90
2022-12-09T06:21:18.404Z,7.07
2022-12-09T06:26:22.460Z,7.80
2022-12-09T06:31:14.975Z,7.20
2022-12-09T06:36:08.008Z,6.40
2022-12-09T06:41:00.007Z,6.73
2022-12-09T06:45:51.947Z,7.90
2022-12-09T06:50:43.548Z,7.63
2022-12-09T06:55:35.129Z,7.93
2022-12-09T07:00:26.845Z,7.60
2022-12-09T07:05:19.568Z,8.43
2022-12-09T07:10:11.776Z,7.47
2022-12-09T07:15:04.247Z,7.70
2022-12-09T07:19:59.053Z,8.90
2022-12-09T07:24:55.403Z,7.93
2022-12-09T07:29:47.259Z,8.53
2022-12-09T07:34:39.681Z,7.93
2022-12-09T07:39:31.705Z,8.03
2022-12-09T07:44:25.346Z,8.47
2022-12-09T07:49:17.467Z,8.17
2022-12-09T07:54:17.792Z,8.27
2022-12-09T07:59:11.019Z,8.80
2022-12-09T08:04:05.681Z,8.07
2022-12-09T08:09:00.028Z,7.43
2022-12-09T08:13:54.070Z,7.33
2022-12-09T08:18:47.183Z,8.13
2022-12-09T08:23:40.305Z,8.57
2022-12-09T08:28:32.374Z,8.87
2022-12-09T08:33:24.744Z,8.30
2022-12-09T08:38:17.384Z,8.50
2022-12-09T08:43:09.646Z,8.27
2022-12-09T08:48:01.455Z,8.97
2022-12-09T08:52:54.014Z,8.90
2022-12-09T08:57:45.856Z,8.47
2022-12-09T09:02:37.621Z,8.57
2022-12-09T09:07:31.066Z,9.97
2022-12-09T09:12:23.448Z,9.70
2022-12-09T09:17:15.401Z,9.40
2022-12-09T09:22:07.456Z,9.37
2022-12-09T09:26:59.059Z,9.17
2022-12-09T09:31:54.672Z,9.13
2022-12-09T09:36:47.597Z,9.50
2022-12-09T09:42:06.215Z,8.83
2022-12-09T09:47:02.978Z,8.80
2022-12-09T09:51:55.036Z,8.87
2022-12-09T09:57:05.242Z,8.97
2022-12-09T10:02:02.372Z,9.80
2022-12-09T10:07:20.111Z,9.80
2022-12-09T10:12:27.100Z,9.33
2022-12-09T10:17:25.112Z,9.67
2022-12-09T10:22:23.116Z,10.13
2022-12-09T10:27:30.568Z,9.97
2022-12-09T10:32:34.735Z,10.43
2022-12-09T10:37:36.130Z,10.10
2022-12-09T10:42:47.688Z,10.53
2022-12-09T10:47:40.284Z,10.70
2022-12-09T10:52:44.463Z,11.57
2022-12-09T10:57:36.271Z,11.10
2022-12-09T11:02:31.156Z,11.20
2022-12-09T11:07:26.039Z,10.97
2022-12-09T11:12:27.358Z,11.60
2022-12-09T11:17:25.341Z,11.67
2022-12-09T11:22:41.633Z,11.73
2022-12-09T11:27:35.025Z,11.40
2022-12-09T11:32:27.039Z,11.33
2022-12-09T11:37:18.757Z,10.97
2022-12-09T11:42:18.882Z,10.63
2022-12-09T11:53:11.615Z,11.03
2022-12-09T11:58:15.884Z,10.57
2022-12-09T12:03:22.036Z,11.40
2022-12-09T12:08:25.946Z,11.57
2022-12-09T12:13:23.949Z,11.43
2022-12-09T12:18:22.053Z,12.27
2022-12-09T12:23:39.651Z,13.10
2022-12-09T12:28:56.679Z,14.57
2022-12-09T12:34:28.262Z,13.90
2022-12-09T12:39:35.297Z,13.43
2022-12-09T12:45:12.811Z,13.00
2022-12-09T12:50:04.601Z,13.37
2022-12-09T12:54:56.382Z,12.27
2022-12-09T13:00:01.328Z,12.97
2022-12-09T13:05:00.533Z,12.80
2022-12-09T13:10:14.951Z,12.37
2022-12-09T13:15:12.529Z,12.40
2022-12-09T13:20:05.245Z,13.80
2022-12-09T13:25:21.067Z,12.57
2022-12-09T13:30:22.272Z,13.13
2022-12-09T13:35:37.301Z,13.73
2022-12-09T13:40:37.677Z,13.13
2022-12-09T13:45:46.360Z,14.00
2022-12-09T13:50:44.456Z,13.77
2022-12-09T13:55:56.244Z,13.73
2022-12-09T14:01:04.908Z,12.43
2022-12-09T14:06:01.219Z,13.23
2022-12-09T14:10:54.018Z,13.17
2022-12-09T14:15:48.450Z,13.40
2022-12-09T14:20:40.226Z,14.53
2022-12-09T14:25:35.019Z,13.00
2022-12-09T14:30:48.632Z,14.27
2022-12-09T14:35:54.081Z,13.23
2022-12-09T14:40:57.816Z,13.80
2022-12-09T14:46:04.952Z,14.27
2022-12-09T14:51:21.357Z,13.50
2022-12-09T14:56:21.386Z,13.77
2022-12-09T15:01:13.024Z,13.27
2022-12-09T15:06:12.055Z,12.67
2022-12-09T15:11:29.021Z,13.67
2022-12-09T15:16:24.555Z,13.27
2022-12-09T15:21:46.091Z,13.83
2022-12-09T15:26:37.735Z,13.60
2022-12-09T15:31:31.925Z,14.57
2022-12-09T15:36:35.329Z,13.13
2022-12-09T15:41:51.565Z,13.80
2022-12-09T15:46:46.764Z,13.73
2022-12-09T15:51:42.146Z,14.87
2022-12-09T15:56:43.925Z,15.03
2022-12-09T16:01:36.170Z,14.03
2022-12-09T16:06:31.748Z,14.40
2022-12-09T16:11:41.541Z,15.73
2022-12-09T16:17:01.398Z,14.83
2022-12-09T16:21:56.278Z,15.53
2022-12-09T16:26:50.151Z,15.13
2022-12-09T16:31:42.250Z,14.87
2022-12-09T16:36:33.955Z,15.97
2022-12-09T16:42:03.397Z,15.37
2022-12-09T16:47:17.010Z,16.53
2022-12-09T16:52:13.803Z,15.70
2022-12-09T16:57:05.563Z,15.37
2022-12-09T17:01:57.139Z,15.47
2022-12-09T17:06:48.961Z,17.57
2022-12-09T17:11:44.116Z,16.20
2022-12-09T17:16:40.116Z,17.90
2022-12-09T17:21:31.846Z,16.37
2022-12-09T17:26:23.477Z,15.87
2022-12-09T17:31:18.058Z,17.83
2022-12-09T17:36:11.151Z,18.27
2022-12-09T17:41:11.282Z,17.50
2022-12-09T17:46:04.640Z,17.40
2022-12-09T17:50:56.684Z,17.43
2022-12-09T17:55:48.456Z,16.97
2022-12-09T18:00:41.468Z,18.97
2022-12-09T18:05:38.133Z,17.83
2022-12-09T18:10:29.814Z,17.47
2022-12-09T18:15:21.432Z,18.93
2022-12-09T18:20:13.266Z,16.60
2022-12-09T18:25:05.633Z,17.03
2022-12-09T18:29:57.161Z,17.53
2022-12-09T18:34:49.222Z,17.70
2022-12-09T18:39:40.929Z,18.67
2022-12-09T18:44:32.522Z,19.50
2022-12-09T18:49:26.932Z,18.30
2022-12-09T18:54:23.318Z,17.97
2022-12-09T18:59:14.974Z,17.13
2022-12-09T19:04:08.568Z,17.67
2022-12-09T19:09:02.673Z,18.47
2022-12-09T19:13:55.121Z,18.77
2022-12-09T19:18:47.335Z,17.20
2022-12-09T19:23:40.299Z,17.20
2022-12-09T19:28:31.895Z,17.33
2022-12-09T19:33:23.390Z,17.80
2022-12-09T19:38:14.945Z,17.87
2022-12-09T19:43:07.251Z,17.50
2022-12-09T19:47:58.834Z,17.97
2022-12-09T19:52:50.378Z,19.23
2022-12-09T19:57:42.053Z,19.00
2022-12-09T20:02:36.229Z,18.50
2022-12-09T20:07:27.854Z,18.17
2022-12-09T20:12:19.374Z,19.23
2022-12-09T20:17:10.940Z,19.50
2022-12-09T20:22:02.796Z,20.30
2022-12-09T20:26:55.932Z,20.03
2022-12-09T20:31:47.446Z,19.47
2022-12-09T20:36:40.927Z,18.60
2022-12-09T20:41:32.415Z,19.63
2022-12-09T20:46:26.717Z,19.63
2022-12-09T20:51:21.770Z,20.73
2022-12-09T20:56:14.662Z,18.57
2022-12-09T21:01:08.763Z,18.77
2022-12-09T21:06:00.452Z,19.27
2022-12-09T21:10:52.270Z,19.43
2022-12-09T21:15:43.814Z,18.33
2022-12-09T21:20:41.467Z,17.87
2022-12-09T21:25:35.583Z,19.33
2022-12-09T21:30:27.327Z,17.77
2022-12-09T21:35:18.871Z,19.90
2022-12-09T21:40:11.216Z,19.53
2022-12-09T21:45:03.003Z,19.00
2022-12-09T21:49:54.532Z,18.77
2022-12-09T21:54:53.724Z,19.00
2022-12-09T21:59:47.093Z,19.13
2022-12-09T22:04:38.692Z,19.03
2022-12-09T22:09:30.217Z,18.47
2022-12-09T22:14:21.767Z,18.30
2022-12-09T22:19:17.141Z,18.67
2022-12-09T22:24:11.691Z,18.50
2022-12-09T22:29:04.955Z,18.20
2022-12-09T22:34:00.572Z,18.40
2022-12-09T22:39:19.784Z,18.23
2022-12-09T22:44:13.429Z,17.97
2022-12-09T22:49:06.265Z,17.17
2022-12-09T22:53:58.941Z,17.80
2022-12-09T22:58:50.964Z,16.90
2022-12-09T23:03:42.903Z,18.37
2022-12-09T23:08:35.300Z,16.87
2022-12-09T23:13:26.829Z,18.27
2022-12-09T23:18:18.474Z,16.70
